createdAt,value
2022-11-04T00:01:32.906Z,18.90
2022-11-04T00:04:01.559Z,18.90
2022-11-04T00:06:29.491Z,18.90
2022-11-04T00:09:00.279Z,18.90
2022-11-04T00:11:46.680Z,18.90
2022-11-04T00:14:15.302Z,18.90
2022-11-04T00:17:01.114Z,18.90
2022-11-04T00:19:29.373Z,18.90
2022-11-04T00:22:14.903Z,18.90
2022-11-04T00:25:04.023Z,18.90
2022-11-04T00:27:49.611Z,18.90
2022-11-04T00:30:17.521Z,18.90
2022-11-04T00:33:02.951Z,18.90
2022-11-04T00:35:30.655Z,18.90
2022-11-04T00:37:58.539Z,18.90
2022-11-04T00:40:27.736Z,18.80
2022-11-04T00:42:55.604Z,18.90
2022-11-04T00:45:23.504Z,18.90
2022-11-04T00:47:51.435Z,18.80
2022-11-04T00:50:19.285Z,18.80
2022-11-04T00:52:47.159Z,18.90
2022-11-04T00:55:15.093Z,18.90
2022-11-04T00:57:44.356Z,18.80
2022-11-04T01:00:13.722Z,18.80
2022-11-04T01:02:41.614Z,18.80
2022-11-04T01:05:10.502Z,18.80
2022-11-04T01:07:43.516Z,18.80
2022-11-04T01:10:12.779Z,18.80
2022-11-04T01:12:40.647Z,18.80
2022-11-04T01:15:10.934Z,18.80
2022-11-04T01:17:38.827Z,18.80
2022-11-04T01:20:07.494Z,18.80
2022-11-04T01:22:35.399Z,18.80
2022-11-04T01:25:03.276Z,18.80
2022-11-04T01:27:31.152Z,18.80
2022-11-04T01:29:59.016Z,18.80
2022-11-04T01:32:29.087Z,18.80
2022-11-04T01:34:56.963Z,18.80
2022-11-04T01:37:24.835Z,18.80
2022-11-04T01:39:52.703Z,18.80
2022-11-04T01:42:23.214Z,18.80
2022-11-04T01:44:54.692Z,18.80
2022-11-04T01:47:27.625Z,18.80
2022-11-04T01:50:00.966Z,18.70
2022-11-04T01:52:35.059Z,18.70
2022-11-04T01:55:08.256Z,18.70
2022-11-04T01:57:41.304Z,18.70
2022-11-04T02:00:10.871Z,18.70
2022-11-04T02:02:47.296Z,18.70
2022-11-04T02:05:16.929Z,18.70
2022-11-04T02:07:44.967Z,18.70
2022-11-04T02:10:13.890Z,18.70
2022-11-04T02:12:49.964Z,18.70
2022-11-04T02:15:24.528Z,18.70
2022-11-04T02:18:17.610Z,18.70
2022-11-04T02:21:13.925Z,18.70
2022-11-04T02:24:10.192Z,18.70
2022-11-04T02:27:14.014Z,18.70
2022-11-04T02:30:08.713Z,18.70
2022-11-04T02:32:50.911Z,18.70
2022-11-04T02:35:25.088Z,18.60
2022-11-04T02:37:58.626Z,18.60
2022-11-04T02:40:32.928Z,18.60
2022-11-04T02:43:04.792Z,18.60
2022-11-04T02:45:40.024Z,18.60
2022-11-04T02:48:16.916Z,18.60
2022-11-04T02:50:49.167Z,18.60
2022-11-04T02:53:23.643Z,18.60
2022-11-04T02:55:56.049Z,18.60
2022-11-04T02:58:30.003Z,18.60
2022-11-04T03:01:01.937Z,18.60
2022-11-04T03:03:34.733Z,18.60
2022-11-04T03:06:03.996Z,18.60
2022-11-04T03:08:34.514Z,18.60
2022-11-04T03:11:05.755Z,18.60
2022-11-04T03:13:37.938Z,18.60
2022-11-04T03:16:12.144Z,18.60
2022-11-04T03:18:48.835Z,18.60
2022-11-04T03:21:18.063Z,18.60
2022-11-04T03:23:46.120Z,18.60
2022-11-04T03:26:31.598Z,18.50
2022-11-04T03:29:10.450Z,18.60
2022-11-04T03:31:45.312Z,18.50
2022-11-04T03:34:13.206Z,18.50
2022-11-04T03:36:41.499Z,18.50
2022-11-04T03:39:09.382Z,18.60
2022-11-04T03:41:42.610Z,18.60
2022-11-04T03:44:10.622Z,18.60
2022-11-04T03:46:41.104Z,18.60
2022-11-04T03:49:10.295Z,18.50
2022-11-04T03:51:38.178Z,18.60
2022-11-04T03:54:07.264Z,18.60
2022-11-04T03:57:00.984Z,18.60
2022-11-04T03:59:53.706Z,18.50
2022-11-04T04:02:28.329Z,18.60
2022-11-04T04:05:00.053Z,18.60
2022-11-04T04:07:32.038Z,18.50
2022-11-04T04:10:26.880Z,18.50
2022-11-04T04:12:59.565Z,18.50
2022-11-04T04:15:32.724Z,18.50
2022-11-04T04:18:07.016Z,18.50
2022-11-04T04:20:39.207Z,18.50
2022-11-04T04:23:38.405Z,18.50
2022-11-04T04:26:26.678Z,18.50
2022-11-04T04:28:57.464Z,18.50
2022-11-04T04:31:45.671Z,18.50
2022-11-04T04:34:15.010Z,18.50
2022-11-04T04:36:47.873Z,18.50
2022-11-04T04:39:37.796Z,18.50
2022-11-04T04:42:23.939Z,18.50
2022-11-04T04:45:00.759Z,18.50
2022-11-04T04:47:34.323Z,18.50
2022-11-04T04:50:03.879Z,18.50
2022-11-04T04:52:33.924Z,18.50
2022-11-04T04:55:01.883Z,18.50
2022-11-04T04:57:29.720Z,18.50
2022-11-04T04:59:57.606Z,18.50
2022-11-04T05:02:25.740Z,18.40
2022-11-04T05:04:53.747Z,18.40
2022-11-04T05:07:23.079Z,18.40
2022-11-04T05:09:50.970Z,18.50
2022-11-04T05:12:18.990Z,18.50
2022-11-04T05:14:46.880Z,18.50
2022-11-04T05:17:15.445Z,18.50
2022-11-04T05:19:43.387Z,18.40
2022-11-04T05:22:11.268Z,18.40
2022-11-04T05:24:40.918Z,18.40
2022-11-04T05:27:08.817Z,18.40
2022-11-04T05:29:36.690Z,18.40
2022-11-04T05:32:04.737Z,18.40
2022-11-04T05:34:32.616Z,18.40
2022-11-04T05:37:00.914Z,18.40
2022-11-04T05:39:28.803Z,18.40
2022-11-04T05:41:58.695Z,18.40
2022-11-04T05:44:26.556Z,18.40
2022-11-04T05:46:54.448Z,18.40
2022-11-04T05:49:22.337Z,18.40
2022-11-04T05:51:50.256Z,18.40
2022-11-04T05:54:18.151Z,18.40
2022-11-04T05:56:46.029Z,18.40
2022-11-04T05:59:15.346Z,18.40
2022-11-04T06:01:43.945Z,18.40
2022-11-04T06:04:15.499Z,18.40
2022-11-04T06:06:43.654Z,18.40
2022-11-04T06:09:11.752Z,18.40
2022-11-04T06:11:40.270Z,18.30
2022-11-04T06:14:08.227Z,18.40
2022-11-04T06:16:37.613Z,18.40
2022-11-04T06:19:08.653Z,18.40
2022-11-04T06:21:41.174Z,18.40
2022-11-04T06:24:09.361Z,18.40
2022-11-04T06:26:39.547Z,18.40
2022-11-04T06:29:07.529Z,18.30
2022-11-04T06:31:36.830Z,18.40
2022-11-04T06:34:04.889Z,18.30
2022-11-04T06:36:32.834Z,18.30
2022-11-04T06:39:04.585Z,18.30
2022-11-04T06:41:33.122Z,18.30
2022-11-04T06:44:01.121Z,18.40
2022-11-04T06:46:32.212Z,18.30
2022-11-04T06:49:01.439Z,18.30
2022-11-04T06:51:29.454Z,18.30
2022-11-04T06:53:57.494Z,18.30
2022-11-04T06:56:25.815Z,18.30
2022-11-04T06:58:55.258Z,18.30
2022-11-04T07:01:25.162Z,18.30
2022-11-04T07:03:54.433Z,18.40
2022-11-04T07:06:23.982Z,18.40
2022-11-04T07:08:53.470Z,18.40
2022-11-04T07:11:23.399Z,18.40
2022-11-04T07:13:51.347Z,18.40
2022-11-04T07:16:20.010Z,18.40
2022-11-04T07:18:49.150Z,18.40
2022-11-04T07:21:17.026Z,18.40
2022-11-04T07:23:46.332Z,18.40
2022-11-04T07:26:14.352Z,18.40
2022-11-04T07:28:42.632Z,18.40
2022-11-04T07:31:12.897Z,18.40
2022-11-04T07:33:40.887Z,18.40
2022-11-04T07:36:13.327Z,18.40
2022-11-04T07:38:41.250Z,18.40
2022-11-04T07:41:10.526Z,18.30
2022-11-04T07:43:38.420Z,18.30
2022-11-04T07:46:08.531Z,18.40
2022-11-04T07:48:37.611Z,18.30
2022-11-04T07:51:06.550Z,18.40
2022-11-04T07:53:34.980Z,18.40
2022-11-04T07:56:05.235Z,18.30
2022-11-04T07:58:34.806Z,18.30
2022-11-04T08:01:05.312Z,18.40
2022-11-04T08:03:33.635Z,18.40
2022-11-04T08:06:03.761Z,18.40
2022-11-04T08:08:31.785Z,18.40
2022-11-04T08:11:01.728Z,18.40
2022-11-04T08:13:30.519Z,18.40
2022-11-04T08:16:02.964Z,18.40
2022-11-04T08:18:32.138Z,18.40
2022-11-04T08:21:02.380Z,18.40
2022-11-04T08:23:30.508Z,18.40
2022-11-04T08:25:59.099Z,18.40
2022-11-04T08:28:27.752Z,18.40
2022-11-04T08:30:57.204Z,18.40
2022-11-04T08:33:27.133Z,18.40
2022-11-04T08:35:55.844Z,18.40
2022-11-04T08:38:24.156Z,18.40
2022-11-04T08:40:58.592Z,18.40
2022-11-04T08:43:27.842Z,18.40
2022-11-04T08:45:56.310Z,18.40
2022-11-04T08:48:25.978Z,18.40
2022-11-04T08:50:56.323Z,18.40
2022-11-04T08:53:24.195Z,18.40
2022-11-04T08:55:52.291Z,18.40
2022-11-04T08:58:21.082Z,18.40
2022-11-04T09:00:49.462Z,18.40
2022-11-04T09:03:17.476Z,18.40
2022-11-04T09:05:49.030Z,18.40
2022-11-04T09:08:18.270Z,18.40
2022-11-04T09:10:47.519Z,18.40
2022-11-04T09:13:17.309Z,18.40
2022-11-04T09:15:45.471Z,18.40
2022-11-04T09:18:13.421Z,18.30
2022-11-04T09:20:42.094Z,18.40
2022-11-04T09:23:11.747Z,18.40
2022-11-04T09:25:39.828Z,18.40
2022-11-04T09:28:07.766Z,18.40
2022-11-04T09:30:35.695Z,18.40
2022-11-04T09:33:04.105Z,18.40
2022-11-04T09:35:31.991Z,18.40
2022-11-04T09:38:01.700Z,18.40
2022-11-04T09:40:31.209Z,18.40
2022-11-04T09:43:15.308Z,18.40
2022-11-04T09:45:44.915Z,18.40
2022-11-04T09:48:20.204Z,18.40
2022-11-04T09:50:51.445Z,18.40
2022-11-04T09:53:24.053Z,18.50
2022-11-04T09:55:57.892Z,18.40
2022-11-04T09:58:25.947Z,18.50
2022-11-04T10:01:01.341Z,18.40
2022-11-04T10:03:44.739Z,18.50
2022-11-04T10:06:28.294Z,18.60
2022-11-04T10:09:17.198Z,18.60
2022-11-04T10:11:54.683Z,18.70
2022-11-04T10:14:46.322Z,18.70
2022-11-04T10:17:29.443Z,18.80
2022-11-04T10:20:12.121Z,18.90
2022-11-04T10:22:56.662Z,18.90
2022-11-04T10:25:29.657Z,18.90
2022-11-04T10:28:00.116Z,18.90
2022-11-04T10:30:29.301Z,18.90
2022-11-04T10:33:04.220Z,19.00
2022-11-04T10:35:37.255Z,19.00
2022-11-04T10:38:19.045Z,19.00
2022-11-04T10:40:49.760Z,19.00
2022-11-04T10:43:26.110Z,19.00
2022-11-04T10:46:04.668Z,19.00
2022-11-04T10:48:41.640Z,19.00
2022-11-04T10:51:09.565Z,19.00
2022-11-04T10:53:37.700Z,19.00
2022-11-04T10:56:13.077Z,19.00
2022-11-04T10:58:46.655Z,19.00
2022-11-04T11:01:26.795Z,19.10
2022-11-04T11:03:55.378Z,19.00
2022-11-04T11:06:29.056Z,19.10
2022-11-04T11:09:00.801Z,19.10
2022-11-04T11:11:47.346Z,19.10
2022-11-04T11:14:31.613Z,19.10
2022-11-04T11:17:18.862Z,19.10
2022-11-04T11:19:51.676Z,19.10
2022-11-04T11:22:35.809Z,19.10
2022-11-04T11:25:23.078Z,19.10
2022-11-04T11:27:53.229Z,19.20
2022-11-04T11:30:26.568Z,19.10
2022-11-04T11:32:58.867Z,19.10
2022-11-04T11:35:31.656Z,19.10
2022-11-04T11:38:01.251Z,19.10
2022-11-04T11:40:34.016Z,19.10
2022-11-04T11:43:03.158Z,19.10
2022-11-04T11:45:33.648Z,19.10
2022-11-04T11:48:01.854Z,19.10
2022-11-04T11:50:35.537Z,19.10
2022-11-04T11:53:16.462Z,19.00
2022-11-04T11:55:50.839Z,18.90
2022-11-04T12:01:25.840Z,18.30
2022-11-04T12:09:40.815Z,17.90
2022-11-04T12:12:24.532Z,18.00
2022-11-04T12:15:04.679Z,18.20
2022-11-04T12:17:49.112Z,18.30
2022-11-04T12:20:33.494Z,18.40
2022-11-04T12:23:11.316Z,18.50
2022-11-04T12:25:49.159Z,18.50
2022-11-04T12:28:25.827Z,18.40
2022-11-04T12:31:04.766Z,18.50
2022-11-04T12:33:40.397Z,18.50
2022-11-04T12:36:22.026Z,18.60
2022-11-04T12:39:15.501Z,18.50
2022-11-04T12:44:51.312Z,18.50
2022-11-04T12:47:31.510Z,18.50
2022-11-04T12:50:13.098Z,18.60
2022-11-04T12:53:25.863Z,18.70
2022-11-04T12:56:02.291Z,18.70
2022-11-04T12:58:40.428Z,18.60
2022-11-04T13:01:15.511Z,18.60
2022-11-04T13:03:51.737Z,18.60
2022-11-04T13:06:26.496Z,18.60
2022-11-04T13:08:59.907Z,18.60
2022-11-04T13:11:31.187Z,18.60
2022-11-04T13:14:04.660Z,18.60
2022-11-04T13:16:37.823Z,18.70
2022-11-04T13:19:09.404Z,18.70
2022-11-04T13:21:40.078Z,18.70
2022-11-04T13:24:18.378Z,18.70
2022-11-04T13:26:46.588Z,18.70
2022-11-04T13:29:21.258Z,18.70
2022-11-04T13:31:56.854Z,18.70
2022-11-04T13:34:35.376Z,18.70
2022-11-04T13:37:15.899Z,18.70
2022-11-04T13:39:47.440Z,18.70
2022-11-04T13:43:19.924Z,18.70
2022-11-04T13:45:51.491Z,18.70
2022-11-04T13:48:22.656Z,18.70
2022-11-04T13:51:00.407Z,18.70
2022-11-04T13:53:47.958Z,18.70
2022-11-04T13:56:34.138Z,18.70
2022-11-04T13:59:19.434Z,18.70
2022-11-04T14:01:47.494Z,18.70
2022-11-04T14:04:38.444Z,18.70
2022-11-04T14:07:08.524Z,18.70
2022-11-04T14:09:52.051Z,18.70
2022-11-04T14:12:33.434Z,18.70
2022-11-04T14:15:10.593Z,18.70
2022-11-04T14:18:07.836Z,18.70
2022-11-04T14:20:38.547Z,18.70
2022-11-04T14:23:08.811Z,18.70
2022-11-04T14:25:44.198Z,18.70
2022-11-04T14:28:26.807Z,18.70
2022-11-04T14:30:56.456Z,18.70
2022-11-04T14:33:42.047Z,18.70
2022-11-04T14:36:35.483Z,18.70
2022-11-04T14:39:06.973Z,18.70
2022-11-04T14:41:52.745Z,18.70
2022-11-04T14:44:25.879Z,18.70
2022-11-04T14:46:57.029Z,18.70
2022-11-04T14:49:40.425Z,18.60
2022-11-04T14:52:17.878Z,18.70
2022-11-04T14:54:46.204Z,18.70
2022-11-04T14:57:20.265Z,18.70
2022-11-04T14:59:48.916Z,18.70
2022-11-04T15:02:20.814Z,18.70
2022-11-04T15:04:52.467Z,18.70
2022-11-04T15:07:37.809Z,18.60
2022-11-04T15:10:19.474Z,18.60
2022-11-04T15:12:52.324Z,18.60
2022-11-04T15:15:39.009Z,18.60
2022-11-04T15:18:09.747Z,18.60
2022-11-04T15:20:42.266Z,18.60
2022-11-04T15:23:16.409Z,18.60
2022-11-04T15:25:48.741Z,18.60
2022-11-04T15:28:24.991Z,18.70
2022-11-04T15:31:05.303Z,18.60
2022-11-04T15:33:39.846Z,18.60
2022-11-04T15:36:13.811Z,18.60
2022-11-04T15:38:45.466Z,18.60
2022-11-04T15:41:37.288Z,18.70
2022-11-04T15:44:15.179Z,18.70
2022-11-04T15:46:49.345Z,18.60
2022-11-04T15:49:24.166Z,18.60
2022-11-04T15:51:53.864Z,18.60
2022-11-04T15:54:26.757Z,18.60
2022-11-04T15:56:57.484Z,18.60
2022-11-04T15:59:29.533Z,18.60
2022-11-04T16:01:58.035Z,18.60
2022-11-04T16:04:28.241Z,18.60
2022-11-04T16:07:21.275Z,18.60
2022-11-04T16:09:50.858Z,18.50
2022-11-04T16:12:27.316Z,18.60
2022-11-04T16:14:57.921Z,18.60
2022-11-04T16:17:26.678Z,18.60
2022-11-04T16:19:56.900Z,18.50
2022-11-04T16:22:29.834Z,18.60
2022-11-04T16:24:59.094Z,18.60
2022-11-04T16:27:30.074Z,18.60
2022-11-04T16:30:09.332Z,18.60
2022-11-04T16:32:43.635Z,18.60
2022-11-04T16:35:18.192Z,18.50
2022-11-04T16:37:46.139Z,18.50
2022-11-04T16:40:14.619Z,18.50
2022-11-04T16:42:42.987Z,18.50
2022-11-04T16:45:22.835Z,18.60
2022-11-04T16:47:50.743Z,18.80
2022-11-04T16:50:19.043Z,18.60
2022-11-04T16:52:47.334Z,18.60
2022-11-04T16:55:15.826Z,18.60
2022-11-04T16:57:44.419Z,18.50
2022-11-04T17:00:20.630Z,18.50
2022-11-04T17:02:49.556Z,18.60
2022-11-04T17:05:18.194Z,18.60
2022-11-04T17:07:54.291Z,18.60
2022-11-04T17:10:26.442Z,18.50
2022-11-04T17:12:54.362Z,18.50
2022-11-04T17:15:23.705Z,18.50
2022-11-04T17:17:51.641Z,18.60
2022-11-04T17:20:20.360Z,18.50
2022-11-04T17:22:48.927Z,18.50
2022-11-04T17:25:20.115Z,18.50
2022-11-04T17:27:48.173Z,18.60
2022-11-04T17:30:17.306Z,18.50
2022-11-04T17:32:47.901Z,18.50
2022-11-04T17:35:16.988Z,18.50
2022-11-04T17:37:45.529Z,18.50
2022-11-04T17:40:16.393Z,18.50
2022-11-04T17:43:10.135Z,18.60
2022-11-04T17:45:39.666Z,18.50
2022-11-04T17:48:10.235Z,18.60
2022-11-04T17:50:41.337Z,18.60
2022-11-04T17:53:09.653Z,18.60
2022-11-04T17:55:40.348Z,18.60
2022-11-04T17:58:08.559Z,18.60
2022-11-04T18:00:36.461Z,18.70
2022-11-04T18:03:04.460Z,18.70
2022-11-04T18:05:33.697Z,18.70
2022-11-04T18:08:01.920Z,18.70
2022-11-04T18:10:29.877Z,18.70
2022-11-04T18:12:56.794Z,18.70
2022-11-04T18:15:25.311Z,18.70
2022-11-04T18:17:53.271Z,18.80
2022-11-04T18:20:21.495Z,18.70
2022-11-04T18:22:50.726Z,18.80
2022-11-04T18:25:18.989Z,18.80
2022-11-04T18:27:48.768Z,18.70
2022-11-04T18:30:16.981Z,18.80
2022-11-04T18:32:44.859Z,18.80
2022-11-04T18:35:12.725Z,18.90
2022-11-04T18:37:45.873Z,18.90
2022-11-04T18:40:16.570Z,19.00
2022-11-04T18:42:44.578Z,19.00
2022-11-04T18:45:12.771Z,18.90
2022-11-04T18:47:40.674Z,19.00
2022-11-04T18:50:09.100Z,19.00
2022-11-04T18:52:37.031Z,19.00
2022-11-04T18:55:05.379Z,19.00
2022-11-04T18:57:34.679Z,19.00
2022-11-04T19:00:02.664Z,19.00
2022-11-04T19:02:32.335Z,19.00
2022-11-04T19:05:00.418Z,19.00
2022-11-04T19:07:28.349Z,19.10
2022-11-04T19:09:56.231Z,19.00
2022-11-04T19:12:41.764Z,19.00
2022-11-04T19:15:11.808Z,19.10
2022-11-04T19:17:39.851Z,19.10
2022-11-04T19:20:12.215Z,19.10
2022-11-04T19:22:40.935Z,19.10
2022-11-04T19:25:09.527Z,19.10
2022-11-04T19:27:37.640Z,19.10
2022-11-04T19:30:06.253Z,19.00
2022-11-04T19:32:35.495Z,19.00
2022-11-04T19:35:03.384Z,19.10
2022-11-04T19:37:31.264Z,19.10
2022-11-04T19:39:59.209Z,19.00
2022-11-04T19:42:44.371Z,19.10
2022-11-04T19:45:12.272Z,19.10
2022-11-04T19:47:41.539Z,19.10
2022-11-04T19:50:09.945Z,19.10
2022-11-04T19:52:37.835Z,19.10
2022-11-04T19:55:07.175Z,19.10
2022-11-04T19:57:35.515Z,19.10
2022-11-04T20:00:03.636Z,19.20
2022-11-04T20:02:31.621Z,19.10
2022-11-04T20:05:00.939Z,19.10
2022-11-04T20:07:28.856Z,19.10
2022-11-04T20:09:57.031Z,19.10
2022-11-04T20:12:42.287Z,19.10
2022-11-04T20:15:11.079Z,19.10
2022-11-04T20:17:38.952Z,19.10
2022-11-04T20:20:08.848Z,19.10
2022-11-04T20:22:36.747Z,19.20
2022-11-04T20:25:05.119Z,19.10
2022-11-04T20:27:34.154Z,19.10
2022-11-04T20:30:02.051Z,19.10
2022-11-04T20:32:30.050Z,19.10
2022-11-04T20:34:57.964Z,19.10
2022-11-04T20:37:27.826Z,19.20
2022-11-04T20:39:55.800Z,19.10
2022-11-04T20:42:23.727Z,19.10
2022-11-04T20:44:51.667Z,19.10
2022-11-04T20:47:19.532Z,19.10
2022-11-04T20:49:47.420Z,19.10
2022-11-04T20:52:15.511Z,19.10
2022-11-04T20:54:44.753Z,19.10
2022-11-04T20:57:12.741Z,19.10
2022-11-04T20:59:40.660Z,19.10
2022-11-04T21:02:08.725Z,19.10
2022-11-04T21:04:36.870Z,19.10
2022-11-04T21:07:06.786Z,19.10
2022-11-04T21:09:34.670Z,19.10
2022-11-04T21:12:04.137Z,19.10
2022-11-04T21:14:34.669Z,19.10
2022-11-04T21:17:03.783Z,19.10
2022-11-04T21:19:31.776Z,19.10
2022-11-04T21:21:59.753Z,19.10
2022-11-04T21:24:27.651Z,19.10
2022-11-04T21:26:55.526Z,19.10
2022-11-04T21:29:24.768Z,19.10
2022-11-04T21:31:52.640Z,19.10
2022-11-04T21:34:20.503Z,19.10
2022-11-04T21:36:52.127Z,19.10
2022-11-04T21:39:20.038Z,19.10
2022-11-04T21:41:47.981Z,19.10
2022-11-04T21:44:15.862Z,19.10
2022-11-04T21:46:45.114Z,19.10
2022-11-04T21:49:14.270Z,19.10
2022-11-04T21:51:42.246Z,19.10
2022-11-04T21:54:11.445Z,19.10
2022-11-04T21:56:39.336Z,19.10
2022-11-04T21:59:07.199Z,19.00
2022-11-04T22:01:35.251Z,19.00
2022-11-04T22:04:04.855Z,18.90
2022-11-04T22:06:35.521Z,18.90
2022-11-04T22:09:05.073Z,18.80
2022-11-04T22:11:36.323Z,18.80
2022-11-04T22:14:07.317Z,18.90
2022-11-04T22:16:36.816Z,18.80
2022-11-04T22:19:07.463Z,18.80
2022-11-04T22:21:35.442Z,18.70
2022-11-04T22:24:03.341Z,18.70
2022-11-04T22:26:33.174Z,18.70
2022-11-04T22:29:01.598Z,18.70
2022-11-04T22:31:30.967Z,18.70
2022-11-04T22:33:59.563Z,18.80
2022-11-04T22:36:29.239Z,18.70
2022-11-04T22:38:57.216Z,18.70
2022-11-04T22:41:28.439Z,18.60
2022-11-04T22:43:57.098Z,18.70
2022-11-04T22:46:26.992Z,18.70
2022-11-04T22:48:55.203Z,18.70
2022-11-04T22:51:23.304Z,18.70
2022-11-04T22:53:57.702Z,18.70
2022-11-04T22:56:28.166Z,18.70
2022-11-04T22:58:56.078Z,18.70
2022-11-04T23:01:25.937Z,18.70
2022-11-04T23:03:54.416Z,18.70
2022-11-04T23:06:22.424Z,18.70
2022-11-04T23:08:59.677Z,18.70
2022-11-04T23:11:48.909Z,18.70
2022-11-04T23:14:36.791Z,18.60
2022-11-04T23:17:28.722Z,18.60
2022-11-04T23:19:56.612Z,18.70
2022-11-04T23:22:42.127Z,18.60
2022-11-04T23:25:11.069Z,18.60
2022-11-04T23:28:01.087Z,18.60
2022-11-04T23:30:31.590Z,18.60
2022-11-04T23:33:01.691Z,18.60
2022-11-04T23:35:49.421Z,18.60
2022-11-04T23:38:17.924Z,18.60
2022-11-04T23:41:06.731Z,18.60
2022-11-04T23:43:35.469Z,18.60
2022-11-04T23:46:17.844Z,18.60
2022-11-04T23:49:03.753Z,18.60
2022-11-04T23:51:50.032Z,18.50
2022-11-04T23:54:35.379Z,18.60
2022-11-04T23:57:20.964Z,18.60
